createdAt,value
2019-02-28T06:39:04.406Z,18.00
2019-02-28T06:44:30.495Z,18.93
2019-02-28T06:49:56.290Z,20.23
2019-02-28T06:52:36.609Z,19.60
2019-02-28T06:55:23.108Z,17.80
2019-02-28T07:00:50.526Z,17.10
2019-02-28T07:03:30.952Z,21.83
2019-02-28T07:06:01.211Z,19.50
2019-02-28T07:08:30.057Z,21.40
2019-02-28T07:10:58.734Z,22.30
2019-02-28T07:13:27.400Z,21.53
2019-02-28T07:15:59.109Z,21.30
2019-02-28T07:18:26.573Z,21.43
2019-02-28T07:20:55.314Z,21.13
2019-02-28T07:23:26.725Z,21.83
2019-02-28T07:25:54.394Z,21.30
2019-02-28T07:28:23.066Z,22.53
2019-02-28T07:30:51.818Z,22.40
2019-02-28T07:33:20.490Z,23.33
2019-02-28T07:35:49.175Z,24.43
2019-02-28T07:38:17.842Z,22.87
2019-02-28T07:40:49.591Z,23.90
2019-02-28T07:43:16.925Z,23.87
2019-02-28T07:45:45.597Z,24.93
2019-02-28T07:48:14.373Z,24.97
2019-02-28T07:50:43.432Z,26.30
2019-02-28T07:53:13.441Z,26.63
2019-02-28T07:55:42.126Z,25.20
2019-02-28T07:58:10.798Z,26.47
2019-02-28T08:00:39.473Z,26.90
2019-02-28T08:03:11.304Z,26.47
2019-02-28T08:05:39.065Z,27.63
2019-02-28T08:08:07.817Z,27.43
2019-02-28T08:10:37.314Z,29.17
2019-02-28T08:13:06.065Z,29.60
2019-02-28T08:15:34.813Z,29.17
2019-02-28T08:18:05.687Z,27.77
2019-02-28T08:20:34.806Z,29.33
2019-02-28T08:23:03.679Z,29.37
2019-02-28T08:25:32.353Z,31.53
2019-02-28T08:28:01.025Z,31.00
2019-02-28T08:30:29.801Z,31.07
2019-02-28T08:32:58.460Z,31.83
2019-02-28T08:35:27.205Z,31.17
2019-02-28T08:37:57.253Z,29.37
2019-02-28T08:40:26.935Z,29.00
2019-02-28T08:43:15.142Z,30.90
2019-02-28T08:45:43.838Z,29.57
2019-02-28T08:48:12.798Z,30.63
2019-02-28T08:50:41.668Z,31.37
2019-02-28T08:53:12.462Z,30.57
2019-02-28T08:55:43.654Z,31.53
2019-02-28T08:58:11.226Z,32.57
2019-02-28T09:00:39.905Z,31.47
2019-02-28T09:03:08.593Z,32.67
2019-02-28T09:05:37.270Z,33.53
2019-02-28T09:08:06.014Z,32.10
2019-02-28T09:10:34.693Z,30.70
2019-02-28T09:13:07.578Z,31.63
2019-02-28T09:15:33.879Z,32.30
2019-02-28T09:18:02.548Z,31.67
2019-02-28T09:20:31.229Z,33.30
2019-02-28T09:23:02.382Z,31.67
2019-02-28T09:25:30.309Z,33.43
2019-02-28T09:27:59.061Z,34.20
2019-02-28T09:30:33.266Z,33.47
2019-02-28T09:33:02.015Z,34.90
2019-02-28T09:35:30.694Z,32.73
2019-02-28T09:38:00.294Z,34.07
2019-02-28T09:40:30.580Z,33.50
2019-02-28T09:42:59.431Z,34.40
2019-02-28T09:45:28.319Z,34.47
2019-02-28T09:48:00.812Z,36.47
2019-02-28T09:50:27.474Z,37.80
2019-02-28T09:52:56.141Z,35.63
2019-02-28T09:55:24.834Z,35.90
2019-02-28T09:57:54.843Z,35.00
2019-02-28T10:00:23.937Z,36.07
2019-02-28T10:02:53.130Z,36.70
2019-02-28T10:05:21.961Z,35.43
2019-02-28T10:07:50.914Z,36.77
2019-02-28T10:10:21.765Z,36.67
2019-02-28T10:12:50.760Z,34.63
2019-02-28T10:15:20.334Z,35.60
2019-02-28T10:17:49.173Z,36.27
2019-02-28T10:20:20.161Z,36.73
2019-02-28T10:22:48.837Z,34.63
2019-02-28T10:25:17.773Z,36.00
2019-02-28T10:27:46.457Z,35.37
2019-02-28T10:30:28.348Z,35.07
2019-02-28T10:32:50.023Z,33.63
2019-02-28T10:35:18.702Z,36.77
2019-02-28T10:37:47.470Z,35.03
2019-02-28T10:40:20.825Z,34.57
2019-02-28T10:42:49.617Z,35.73
2019-02-28T10:45:18.370Z,35.30
2019-02-28T10:47:47.054Z,35.17
2019-02-28T10:50:17.789Z,34.60
2019-02-28T10:52:46.470Z,32.60
2019-02-28T10:55:16.222Z,33.07
2019-02-28T10:57:45.265Z,34.97
2019-02-28T11:00:17.526Z,34.80
2019-02-28T11:02:46.581Z,36.23
2019-02-28T11:05:19.585Z,36.37
2019-02-28T11:07:49.098Z,33.67
2019-02-28T11:10:18.714Z,33.47
2019-02-28T11:12:47.466Z,34.53
2019-02-28T11:15:20.207Z,34.47
2019-02-28T11:17:48.885Z,32.47
2019-02-28T11:20:22.161Z,33.47
2019-02-28T11:22:48.029Z,36.60
2019-02-28T11:25:17.477Z,37.33
2019-02-28T11:27:46.224Z,38.83
2019-02-28T11:30:16.123Z,37.40
2019-02-28T11:32:44.973Z,35.93
2019-02-28T11:35:13.987Z,36.63
2019-02-28T11:37:46.013Z,36.57
2019-02-28T11:40:13.232Z,36.43
2019-02-28T11:42:42.058Z,36.93
2019-02-28T11:45:14.021Z,34.10
2019-02-28T11:47:43.428Z,33.67
2019-02-28T11:50:31.560Z,33.80
2019-02-28T11:53:04.955Z,34.77
2019-02-28T11:55:30.663Z,34.00
2019-02-28T11:57:59.653Z,32.33
2019-02-28T12:00:32.533Z,33.10
2019-02-28T12:03:00.904Z,32.13
2019-02-28T12:05:29.870Z,34.33
2019-02-28T12:07:58.541Z,33.33
2019-02-28T12:10:27.875Z,30.73
2019-02-28T12:12:56.820Z,34.17
2019-02-28T12:15:26.593Z,31.00
2019-02-28T12:17:55.355Z,32.93
2019-02-28T12:20:26.548Z,32.73
2019-02-28T12:22:54.418Z,34.17
2019-02-28T12:25:23.164Z,34.30
2019-02-28T12:27:51.921Z,35.63
2019-02-28T12:30:25.110Z,34.80
2019-02-28T12:32:52.924Z,33.17
2019-02-28T12:35:21.669Z,33.07
2019-02-28T12:37:50.445Z,32.23
2019-02-28T12:40:23.133Z,34.70
2019-02-28T12:42:51.890Z,34.20
2019-02-28T12:45:24.440Z,33.67
2019-02-28T12:47:53.936Z,32.70
2019-02-28T12:50:22.677Z,31.67
2019-02-28T12:52:51.605Z,33.70
2019-02-28T12:55:20.441Z,36.10
2019-02-28T12:57:49.117Z,33.37
2019-02-28T13:00:23.266Z,33.63
2019-02-28T13:02:50.830Z,33.57
2019-02-28T13:05:19.515Z,32.17
2019-02-28T13:07:48.620Z,31.73
2019-02-28T13:10:18.577Z,31.03
2019-02-28T13:12:48.934Z,33.20
2019-02-28T13:15:17.956Z,33.30
2019-02-28T13:17:46.705Z,33.13
2019-02-28T13:20:17.208Z,32.60
2019-02-28T13:22:45.901Z,32.87
2019-02-28T13:25:14.648Z,30.33
2019-02-28T13:27:45.276Z,34.27
2019-02-28T13:30:16.220Z,31.37
2019-02-28T13:32:44.973Z,31.97
2019-02-28T13:35:15.874Z,32.00
2019-02-28T13:37:44.908Z,31.73
2019-02-28T13:40:14.113Z,33.00
2019-02-28T13:42:43.040Z,32.50
2019-02-28T13:45:14.722Z,35.53
2019-02-28T13:47:46.194Z,32.00
2019-02-28T13:50:17.308Z,32.50
2019-02-28T13:52:46.185Z,33.90
2019-02-28T13:55:18.936Z,34.13
2019-02-28T13:57:46.864Z,33.40
2019-02-28T14:00:27.884Z,32.07
2019-02-28T14:02:58.506Z,33.83
2019-02-28T14:05:27.445Z,33.73
2019-02-28T14:07:56.135Z,33.87
2019-02-28T14:10:24.805Z,34.90
2019-02-28T14:12:57.023Z,35.67
2019-02-28T14:15:35.993Z,35.03
2019-02-28T14:18:07.465Z,35.67
2019-02-28T14:20:35.593Z,36.70
2019-02-28T14:23:04.501Z,35.77
2019-02-28T14:25:33.161Z,35.40
2019-02-28T14:28:01.845Z,35.33
2019-02-28T14:30:30.594Z,35.93
2019-02-28T14:32:59.278Z,36.93
2019-02-28T14:35:34.055Z,38.00
2019-02-28T14:37:58.768Z,35.30
2019-02-28T14:40:27.509Z,35.77
2019-02-28T14:42:56.189Z,35.13
2019-02-28T14:45:24.965Z,36.20
2019-02-28T14:47:56.965Z,36.80
2019-02-28T14:50:24.377Z,35.67
2019-02-28T14:52:54.001Z,29.13
2019-02-28T14:55:22.820Z,31.73
2019-02-28T14:57:51.649Z,29.67
2019-02-28T15:00:24.489Z,27.97
2019-02-28T15:02:53.242Z,30.27
2019-02-28T15:05:21.922Z,29.80
2019-02-28T15:07:50.669Z,28.47
2019-02-28T15:10:19.641Z,29.90
2019-02-28T15:12:48.613Z,31.70
2019-02-28T15:15:18.988Z,31.87
2019-02-28T15:17:48.205Z,30.87
2019-02-28T15:20:17.313Z,29.87
2019-02-28T15:22:46.169Z,30.83
2019-02-28T15:25:18.569Z,32.00
2019-02-28T15:27:46.409Z,32.73
2019-02-28T15:30:17.389Z,31.97
2019-02-28T15:32:46.057Z,33.73
2019-02-28T15:35:16.069Z,34.93
2019-02-28T15:37:44.926Z,35.47
2019-02-28T15:40:16.411Z,34.87
2019-02-28T15:42:45.144Z,35.40
2019-02-28T15:45:14.006Z,36.50
2019-02-28T15:47:42.752Z,35.07
2019-02-28T15:50:13.597Z,35.23
2019-02-28T15:52:44.073Z,35.87
2019-02-28T15:55:13.839Z,36.40
2019-02-28T15:57:42.599Z,37.83
2019-02-28T16:00:18.069Z,37.67
2019-02-28T16:02:46.889Z,35.73
2019-02-28T16:05:15.673Z,37.47
2019-02-28T16:07:44.421Z,37.17
2019-02-28T16:10:16.001Z,36.20
2019-02-28T16:12:46.605Z,39.63
2019-02-28T16:15:15.666Z,39.63
2019-02-28T16:17:44.629Z,40.40
2019-02-28T16:20:13.515Z,40.70
2019-02-28T16:22:42.285Z,40.00
2019-02-28T16:25:14.786Z,40.30
2019-02-28T16:27:44.456Z,40.87
2019-02-28T16:30:14.026Z,40.77
2019-02-28T16:32:45.526Z,40.73
2019-02-28T16:35:14.608Z,41.17
2019-02-28T16:37:43.640Z,41.63
2019-02-28T16:40:13.773Z,42.13
2019-02-28T16:42:43.384Z,40.83
2019-02-28T16:45:20.672Z,39.37
2019-02-28T16:47:49.345Z,40.17
2019-02-28T16:50:18.755Z,39.83
2019-02-28T16:52:48.438Z,40.03
2019-02-28T16:55:17.084Z,41.13
2019-02-28T16:57:47.120Z,40.87
2019-02-28T17:00:17.180Z,42.57
2019-02-28T17:02:45.879Z,45.80
2019-02-28T17:05:14.603Z,43.53
2019-02-28T17:07:43.574Z,54.47
2019-02-28T17:10:15.242Z,44.87
2019-02-28T17:13:06.098Z,43.40
2019-02-28T17:15:49.885Z,43.87
2019-02-28T17:18:21.571Z,41.37
2019-02-28T17:20:50.545Z,46.53
2019-02-28T17:23:19.214Z,45.53
2019-02-28T17:25:47.900Z,42.67
2019-02-28T17:28:25.362Z,41.80
2019-02-28T17:31:12.492Z,44.37
2019-02-28T17:33:43.382Z,41.97
2019-02-28T17:36:12.543Z,43.03
2019-02-28T17:38:41.297Z,42.90
2019-02-28T17:41:11.116Z,48.13
2019-02-28T17:43:40.116Z,45.87
2019-02-28T17:46:10.341Z,45.80
2019-02-28T17:49:18.438Z,48.90
2019-02-28T17:52:02.701Z,47.57
2019-02-28T17:55:14.979Z,54.87
2019-02-28T17:58:39.085Z,57.77
2019-02-28T18:01:48.949Z,60.00
2019-02-28T18:04:39.017Z,57.33
2019-02-28T18:07:29.875Z,55.03
2019-02-28T18:10:29.877Z,54.30
2019-02-28T18:13:20.116Z,63.47
2019-02-28T18:16:28.601Z,64.90
2019-02-28T18:19:21.605Z,67.03
2019-02-28T18:22:12.869Z,57.40
2019-02-28T18:25:04.473Z,74.57
2019-02-28T18:28:13.233Z,66.60
2019-02-28T18:31:13.170Z,59.00
2019-02-28T18:34:02.206Z,55.27
2019-02-28T18:36:31.678Z,59.00
2019-02-28T18:39:00.433Z,60.77
2019-02-28T18:41:29.098Z,57.83
2019-02-28T18:44:00.068Z,68.77
2019-02-28T18:46:29.559Z,70.13
2019-02-28T18:48:58.614Z,74.73
2019-02-28T18:51:27.281Z,74.17
2019-02-28T18:53:56.090Z,68.77
2019-02-28T18:56:24.759Z,66.70
2019-02-28T18:58:53.446Z,62.83
2019-02-28T19:01:22.188Z,65.80
2019-02-28T19:03:50.885Z,66.10
2019-02-28T19:06:19.560Z,63.70
2019-02-28T19:08:48.248Z,64.80
2019-02-28T19:11:16.964Z,62.73
2019-02-28T19:13:45.618Z,61.63
2019-02-28T19:16:15.300Z,64.80
2019-02-28T19:18:44.304Z,64.90
2019-02-28T19:21:12.948Z,64.00
2019-02-28T19:23:41.604Z,60.40
2019-02-28T19:26:10.304Z,60.27
2019-02-28T19:28:38.949Z,60.73
2019-02-28T19:31:07.594Z,60.47
2019-02-28T19:33:36.252Z,58.50
2019-02-28T19:36:04.887Z,58.50
2019-02-28T19:38:33.553Z,58.57
2019-02-28T19:41:02.187Z,57.63
2019-02-28T19:43:30.843Z,57.33
2019-02-28T19:45:59.484Z,58.23
2019-02-28T19:48:28.132Z,56.13
2019-02-28T19:50:56.788Z,52.47
2019-02-28T19:53:25.425Z,55.90
2019-02-28T19:55:54.156Z,54.67
2019-02-28T19:58:22.804Z,54.40
2019-02-28T20:00:52.100Z,57.73
2019-02-28T20:03:20.957Z,60.27
2019-02-28T20:05:49.700Z,58.77
2019-02-28T20:08:18.339Z,55.20
2019-02-28T20:10:47.239Z,57.03
2019-02-28T20:13:16.016Z,54.03
2019-02-28T20:15:44.739Z,57.83
2019-02-28T20:18:13.395Z,57.03
2019-02-28T20:20:42.232Z,60.37
2019-02-28T20:23:10.884Z,60.77
2019-02-28T20:25:39.527Z,56.77
2019-02-28T20:28:08.181Z,56.37
2019-02-28T20:30:36.980Z,58.17
2019-02-28T20:33:05.696Z,55.53
2019-02-28T20:35:34.523Z,57.13
2019-02-28T20:38:03.617Z,57.77
2019-02-28T20:40:32.348Z,54.63
2019-02-28T20:43:01.059Z,55.07
2019-02-28T20:45:29.712Z,53.83
2019-02-28T20:47:58.350Z,52.33
2019-02-28T20:50:29.908Z,53.27
2019-02-28T20:52:58.589Z,52.93
2019-02-28T20:55:27.272Z,52.60
2019-02-28T20:57:55.944Z,50.37
2019-02-28T21:00:26.152Z,52.67
2019-02-28T21:02:54.901Z,52.30
2019-02-28T21:05:23.685Z,50.97
2019-02-28T21:07:52.428Z,55.40
2019-02-28T21:10:21.176Z,51.23
2019-02-28T21:12:49.926Z,48.73
2019-02-28T21:15:18.677Z,47.67
2019-02-28T21:17:47.334Z,48.93
2019-02-28T21:20:16.033Z,45.73
2019-02-28T21:22:44.721Z,44.53
2019-02-28T21:25:13.445Z,43.60
2019-02-28T21:27:42.105Z,44.77
2019-02-28T21:30:18.497Z,44.80
2019-02-28T21:32:47.152Z,44.60
2019-02-28T21:35:16.617Z,42.87
2019-02-28T21:37:45.975Z,45.93
2019-02-28T21:40:15.897Z,44.47
2019-02-28T21:42:44.564Z,46.97
2019-02-28T21:45:15.427Z,45.27
2019-02-28T21:47:44.086Z,46.33
